sensor_id;sensor_type;location;lat;lon;timestamp;P1;durP1;ratioP1;P2;durP2;ratioP2
2434;SDS011;1228;51.022;6.764;2023-05-02T00:01:28;21.60;;;15.83;;
2434;SDS011;1228;51.022;6.764;2023-05-02T00:03:54;23.13;;;16.40;;
2434;SDS011;1228;51.022;6.764;2023-05-02T00:06:19;21.47;;;15.57;;
2434;SDS011;1228;51.022;6.764;2023-05-02T00:08:45;20.73;;;15.63;;
2434;SDS011;1228;51.022;6.764;2023-05-02T00:11:12;24.43;;;17.57;;
2434;SDS011;1228;51.022;6.764;2023-05-02T00:13:38;24.97;;;16.40;;
2434;SDS011;1228;51.022;6.764;2023-05-02T00:16:04;26.70;;;18.17;;
2434;SDS011;1228;51.022;6.764;2023-05-02T00:18:30;23.37;;;18.53;;
2434;SDS011;1228;51.022;6.764;2023-05-02T00:20:55;26.00;;;17.77;;
2434;SDS011;1228;51.022;6.764;2023-05-02T00:23:21;23.00;;;16.93;;
2434;SDS011;1228;51.022;6.764;2023-05-02T00:25:47;27.13;;;16.00;;
2434;SDS011;1228;51.022;6.764;2023-05-02T00:28:13;24.27;;;17.60;;
2434;SDS011;1228;51.022;6.764;2023-05-02T00:30:42;22.77;;;17.83;;
2434;SDS011;1228;51.022;6.764;2023-05-02T00:33:08;25.07;;;16.17;;
2434;SDS011;1228;51.022;6.764;2023-05-02T00:35:36;26.87;;;16.27;;
2434;SDS011;1228;51.022;6.764;2023-05-02T00:38:02;21.73;;;15.20;;
2434;SDS011;1228;51.022;6.764;2023-05-02T00:40:27;23.30;;;16.13;;
2434;SDS011;1228;51.022;6.764;2023-05-02T00:42:53;19.93;;;14.50;;
2434;SDS011;1228;51.022;6.764;2023-05-02T00:45:18;20.63;;;15.07;;
2434;SDS011;1228;51.022;6.764;2023-05-02T00:47:44;22.50;;;14.90;;
2434;SDS011;1228;51.022;6.764;2023-05-02T00:50:10;22.60;;;16.27;;
2434;SDS011;1228;51.022;6.764;2023-05-02T00:52:36;25.27;;;16.30;;
2434;SDS011;1228;51.022;6.764;2023-05-02T00:55:02;25.47;;;16.50;;
2434;SDS011;1228;51.022;6.764;2023-05-02T00:57:28;24.83;;;17.47;;
2434;SDS011;1228;51.022;6.764;2023-05-02T00:59:54;23.73;;;17.27;;
2434;SDS011;1228;51.022;6.764;2023-05-02T01:15:36;28.17;;;18.40;;
2434;SDS011;1228;51.022;6.764;2023-05-02T01:18:03;30.80;;;17.90;;
2434;SDS011;1228;51.022;6.764;2023-05-02T01:20:30;35.53;;;19.40;;
2434;SDS011;1228;51.022;6.764;2023-05-02T01:23:02;34.97;;;19.97;;
2434;SDS011;1228;51.022;6.764;2023-05-02T01:28:26;30.37;;;18.43;;
2434;SDS011;1228;51.022;6.764;2023-05-02T01:30:57;35.77;;;19.87;;
2434;SDS011;1228;51.022;6.764;2023-05-02T01:33:24;32.17;;;18.90;;
2434;SDS011;1228;51.022;6.764;2023-05-02T01:35:52;40.57;;;19.47;;
2434;SDS011;1228;51.022;6.764;2023-05-02T01:38:19;43.27;;;21.70;;
2434;SDS011;1228;51.022;6.764;2023-05-02T01:40:46;29.97;;;18.23;;
2434;SDS011;1228;51.022;6.764;2023-05-02T01:43:14;30.03;;;18.37;;
2434;SDS011;1228;51.022;6.764;2023-05-02T01:45:41;34.13;;;21.90;;
2434;SDS011;1228;51.022;6.764;2023-05-02T01:48:09;35.47;;;19.67;;
2434;SDS011;1228;51.022;6.764;2023-05-02T01:50:35;30.77;;;19.03;;
2434;SDS011;1228;51.022;6.764;2023-05-02T01:53:03;32.20;;;20.70;;
2434;SDS011;1228;51.022;6.764;2023-05-02T01:55:30;36.30;;;20.40;;
2434;SDS011;1228;51.022;6.764;2023-05-02T01:57:58;47.53;;;22.63;;
2434;SDS011;1228;51.022;6.764;2023-05-02T02:00:25;35.60;;;19.23;;
2434;SDS011;1228;51.022;6.764;2023-05-02T02:02:51;40.57;;;20.03;;
2434;SDS011;1228;51.022;6.764;2023-05-02T02:05:19;36.13;;;19.90;;
2434;SDS011;1228;51.022;6.764;2023-05-02T02:07:47;36.50;;;21.20;;
2434;SDS011;1228;51.022;6.764;2023-05-02T02:10:12;39.33;;;22.47;;
2434;SDS011;1228;51.022;6.764;2023-05-02T02:12:42;30.57;;;18.27;;
2434;SDS011;1228;51.022;6.764;2023-05-02T02:17:42;40.73;;;21.60;;
2434;SDS011;1228;51.022;6.764;2023-05-02T02:20:11;37.63;;;20.03;;
2434;SDS011;1228;51.022;6.764;2023-05-02T02:22:39;38.73;;;19.47;;
2434;SDS011;1228;51.022;6.764;2023-05-02T02:25:07;26.90;;;17.50;;
2434;SDS011;1228;51.022;6.764;2023-05-02T02:27:37;33.70;;;19.73;;
2434;SDS011;1228;51.022;6.764;2023-05-02T02:30:03;28.93;;;18.67;;
2434;SDS011;1228;51.022;6.764;2023-05-02T02:32:30;31.67;;;19.17;;
2434;SDS011;1228;51.022;6.764;2023-05-02T02:34:55;36.97;;;21.00;;
2434;SDS011;1228;51.022;6.764;2023-05-02T02:45:39;37.60;;;18.37;;
2434;SDS011;1228;51.022;6.764;2023-05-02T02:56:12;32.40;;;17.60;;
2434;SDS011;1228;51.022;6.764;2023-05-02T02:58:56;29.80;;;16.00;;
2434;SDS011;1228;51.022;6.764;2023-05-02T03:01:29;30.30;;;17.60;;
2434;SDS011;1228;51.022;6.764;2023-05-02T03:03:57;27.57;;;14.50;;
2434;SDS011;1228;51.022;6.764;2023-05-02T03:06:23;27.73;;;16.03;;
2434;SDS011;1228;51.022;6.764;2023-05-02T03:08:50;20.70;;;13.30;;
2434;SDS011;1228;51.022;6.764;2023-05-02T03:11:15;26.43;;;15.37;;
2434;SDS011;1228;51.022;6.764;2023-05-02T03:13:41;29.90;;;15.50;;
2434;SDS011;1228;51.022;6.764;2023-05-02T03:19:02;24.50;;;15.63;;
2434;SDS011;1228;51.022;6.764;2023-05-02T03:21:28;31.03;;;16.00;;
2434;SDS011;1228;51.022;6.764;2023-05-02T03:23:58;26.87;;;15.80;;
2434;SDS011;1228;51.022;6.764;2023-05-02T03:26:25;32.23;;;17.47;;
2434;SDS011;1228;51.022;6.764;2023-05-02T03:28:51;28.50;;;15.80;;
2434;SDS011;1228;51.022;6.764;2023-05-02T03:31:17;33.03;;;17.97;;
2434;SDS011;1228;51.022;6.764;2023-05-02T03:33:45;29.70;;;17.10;;
2434;SDS011;1228;51.022;6.764;2023-05-02T03:36:11;31.10;;;16.03;;
2434;SDS011;1228;51.022;6.764;2023-05-02T03:38:37;25.77;;;15.03;;
2434;SDS011;1228;51.022;6.764;2023-05-02T03:41:02;26.63;;;16.23;;
2434;SDS011;1228;51.022;6.764;2023-05-02T03:43:29;27.37;;;17.97;;
2434;SDS011;1228;51.022;6.764;2023-05-02T03:45:55;32.77;;;16.33;;
2434;SDS011;1228;51.022;6.764;2023-05-02T03:48:21;24.10;;;16.07;;
2434;SDS011;1228;51.022;6.764;2023-05-02T03:50:47;29.90;;;17.90;;
2434;SDS011;1228;51.022;6.764;2023-05-02T03:53:14;25.17;;;15.10;;
2434;SDS011;1228;51.022;6.764;2023-05-02T03:55:42;27.00;;;15.93;;
2434;SDS011;1228;51.022;6.764;2023-05-02T03:58:09;25.57;;;15.40;;
2434;SDS011;1228;51.022;6.764;2023-05-02T04:00:35;30.17;;;17.20;;
2434;SDS011;1228;51.022;6.764;2023-05-02T04:03:02;28.93;;;17.90;;
2434;SDS011;1228;51.022;6.764;2023-05-02T04:05:28;20.53;;;14.00;;
2434;SDS011;1228;51.022;6.764;2023-05-02T04:07:56;25.03;;;15.13;;
2434;SDS011;1228;51.022;6.764;2023-05-02T04:10:22;23.53;;;15.70;;
2434;SDS011;1228;51.022;6.764;2023-05-02T04:12:48;30.87;;;15.43;;
2434;SDS011;1228;51.022;6.764;2023-05-02T04:15:14;23.50;;;15.40;;
2434;SDS011;1228;51.022;6.764;2023-05-02T04:17:40;22.10;;;14.43;;
2434;SDS011;1228;51.022;6.764;2023-05-02T04:20:06;22.97;;;14.70;;
2434;SDS011;1228;51.022;6.764;2023-05-02T04:22:32;21.27;;;13.87;;
2434;SDS011;1228;51.022;6.764;2023-05-02T04:24:57;25.80;;;16.17;;
2434;SDS011;1228;51.022;6.764;2023-05-02T04:27:23;28.67;;;14.97;;
2434;SDS011;1228;51.022;6.764;2023-05-02T04:29:49;26.13;;;14.83;;
2434;SDS011;1228;51.022;6.764;2023-05-02T04:32:16;22.07;;;13.37;;
2434;SDS011;1228;51.022;6.764;2023-05-02T04:34:41;22.63;;;14.07;;
2434;SDS011;1228;51.022;6.764;2023-05-02T04:37:07;22.40;;;13.27;;
2434;SDS011;1228;51.022;6.764;2023-05-02T04:39:34;24.53;;;13.97;;
2434;SDS011;1228;51.022;6.764;2023-05-02T04:41:59;22.67;;;13.27;;
2434;SDS011;1228;51.022;6.764;2023-05-02T04:44:25;21.97;;;13.27;;
2434;SDS011;1228;51.022;6.764;2023-05-02T04:46:51;28.33;;;14.00;;
2434;SDS011;1228;51.022;6.764;2023-05-02T04:49:17;25.17;;;15.17;;
2434;SDS011;1228;51.022;6.764;2023-05-02T04:51:43;27.23;;;16.13;;
2434;SDS011;1228;51.022;6.764;2023-05-02T04:54:09;20.77;;;14.87;;
2434;SDS011;1228;51.022;6.764;2023-05-02T04:56:35;27.23;;;16.87;;
2434;SDS011;1228;51.022;6.764;2023-05-02T04:59:01;22.73;;;15.20;;
2434;SDS011;1228;51.022;6.764;2023-05-02T05:01:26;26.90;;;15.30;;
2434;SDS011;1228;51.022;6.764;2023-05-02T05:03:52;25.73;;;14.63;;
2434;SDS011;1228;51.022;6.764;2023-05-02T05:06:18;25.80;;;15.60;;
2434;SDS011;1228;51.022;6.764;2023-05-02T05:08:44;31.60;;;22.40;;
2434;SDS011;1228;51.022;6.764;2023-05-02T05:11:10;23.13;;;15.00;;
2434;SDS011;1228;51.022;6.764;2023-05-02T05:13:36;21.87;;;14.63;;
2434;SDS011;1228;51.022;6.764;2023-05-02T05:16:02;20.33;;;13.70;;
2434;SDS011;1228;51.022;6.764;2023-05-02T05:18:28;26.40;;;14.37;;
2434;SDS011;1228;51.022;6.764;2023-05-02T05:20:54;17.27;;;14.20;;
2434;SDS011;1228;51.022;6.764;2023-05-02T05:23:20;31.17;;;14.03;;
2434;SDS011;1228;51.022;6.764;2023-05-02T05:25:45;19.03;;;13.30;;
2434;SDS011;1228;51.022;6.764;2023-05-02T05:28:11;18.40;;;12.70;;
2434;SDS011;1228;51.022;6.764;2023-05-02T05:30:37;18.43;;;13.13;;
2434;SDS011;1228;51.022;6.764;2023-05-02T05:33:02;19.20;;;12.43;;
2434;SDS011;1228;51.022;6.764;2023-05-02T05:35:28;22.70;;;12.60;;
2434;SDS011;1228;51.022;6.764;2023-05-02T05:37:56;15.87;;;12.33;;
2434;SDS011;1228;51.022;6.764;2023-05-02T05:40:21;19.10;;;11.43;;
2434;SDS011;1228;51.022;6.764;2023-05-02T05:42:47;20.97;;;11.77;;
2434;SDS011;1228;51.022;6.764;2023-05-02T05:45:12;22.07;;;12.30;;
2434;SDS011;1228;51.022;6.764;2023-05-02T05:47:38;22.97;;;12.53;;
2434;SDS011;1228;51.022;6.764;2023-05-02T05:50:04;22.40;;;14.90;;
2434;SDS011;1228;51.022;6.764;2023-05-02T05:52:31;19.20;;;12.80;;
2434;SDS011;1228;51.022;6.764;2023-05-02T05:54:56;18.83;;;12.07;;
2434;SDS011;1228;51.022;6.764;2023-05-02T05:57:22;21.70;;;12.17;;
2434;SDS011;1228;51.022;6.764;2023-05-02T05:59:48;13.37;;;10.83;;
2434;SDS011;1228;51.022;6.764;2023-05-02T06:02:13;18.37;;;12.53;;
2434;SDS011;1228;51.022;6.764;2023-05-02T06:04:40;22.57;;;12.63;;
2434;SDS011;1228;51.022;6.764;2023-05-02T06:07:06;21.50;;;13.40;;
2434;SDS011;1228;51.022;6.764;2023-05-02T06:09:31;17.53;;;12.00;;
2434;SDS011;1228;51.022;6.764;2023-05-02T06:11:57;19.90;;;13.07;;
2434;SDS011;1228;51.022;6.764;2023-05-02T06:14:22;16.80;;;12.43;;
2434;SDS011;1228;51.022;6.764;2023-05-02T06:16:48;20.27;;;14.17;;
2434;SDS011;1228;51.022;6.764;2023-05-02T06:19:14;23.13;;;12.77;;
2434;SDS011;1228;51.022;6.764;2023-05-02T06:21:39;19.90;;;12.13;;
2434;SDS011;1228;51.022;6.764;2023-05-02T06:24:05;18.10;;;12.70;;
2434;SDS011;1228;51.022;6.764;2023-05-02T06:26:31;19.03;;;12.83;;
2434;SDS011;1228;51.022;6.764;2023-05-02T06:28:57;19.30;;;12.60;;
2434;SDS011;1228;51.022;6.764;2023-05-02T06:31:22;15.77;;;10.90;;
2434;SDS011;1228;51.022;6.764;2023-05-02T06:33:48;23.07;;;11.47;;
2434;SDS011;1228;51.022;6.764;2023-05-02T06:36:14;15.57;;;12.20;;
2434;SDS011;1228;51.022;6.764;2023-05-02T06:38:39;16.37;;;11.10;;
2434;SDS011;1228;51.022;6.764;2023-05-02T06:41:05;15.23;;;11.67;;
2434;SDS011;1228;51.022;6.764;2023-05-02T06:43:31;13.50;;;10.63;;
2434;SDS011;1228;51.022;6.764;2023-05-02T06:45:57;18.33;;;11.63;;
2434;SDS011;1228;51.022;6.764;2023-05-02T06:48:24;15.73;;;10.73;;
2434;SDS011;1228;51.022;6.764;2023-05-02T06:50:50;14.97;;;10.40;;
2434;SDS011;1228;51.022;6.764;2023-05-02T06:53:19;13.17;;;9.67;;
2434;SDS011;1228;51.022;6.764;2023-05-02T06:55:45;12.40;;;8.40;;
2434;SDS011;1228;51.022;6.764;2023-05-02T06:58:12;12.13;;;9.47;;
2434;SDS011;1228;51.022;6.764;2023-05-02T07:00:38;10.77;;;8.10;;
2434;SDS011;1228;51.022;6.764;2023-05-02T07:03:03;13.37;;;7.93;;
2434;SDS011;1228;51.022;6.764;2023-05-02T07:05:29;7.73;;;6.87;;
2434;SDS011;1228;51.022;6.764;2023-05-02T07:07:55;7.57;;;6.53;;
2434;SDS011;1228;51.022;6.764;2023-05-02T07:10:20;10.57;;;7.90;;
2434;SDS011;1228;51.022;6.764;2023-05-02T07:12:46;8.63;;;7.97;;
2434;SDS011;1228;51.022;6.764;2023-05-02T07:15:12;9.03;;;7.57;;
2434;SDS011;1228;51.022;6.764;2023-05-02T07:17:38;8.63;;;7.87;;
2434;SDS011;1228;51.022;6.764;2023-05-02T07:20:04;8.60;;;7.80;;
2434;SDS011;1228;51.022;6.764;2023-05-02T07:22:31;7.83;;;7.13;;
2434;SDS011;1228;51.022;6.764;2023-05-02T07:24:57;8.00;;;7.30;;
2434;SDS011;1228;51.022;6.764;2023-05-02T07:27:24;8.87;;;7.50;;
2434;SDS011;1228;51.022;6.764;2023-05-02T07:29:50;7.23;;;6.63;;
2434;SDS011;1228;51.022;6.764;2023-05-02T07:32:16;9.00;;;8.20;;
2434;SDS011;1228;51.022;6.764;2023-05-02T07:34:41;9.27;;;7.37;;
2434;SDS011;1228;51.022;6.764;2023-05-02T07:37:08;7.67;;;6.90;;
2434;SDS011;1228;51.022;6.764;2023-05-02T07:39:33;10.10;;;8.23;;
2434;SDS011;1228;51.022;6.764;2023-05-02T07:41:59;16.43;;;7.57;;
2434;SDS011;1228;51.022;6.764;2023-05-02T07:44:25;8.07;;;7.47;;
2434;SDS011;1228;51.022;6.764;2023-05-02T07:46:51;7.70;;;6.90;;
2434;SDS011;1228;51.022;6.764;2023-05-02T07:49:17;8.13;;;6.57;;
2434;SDS011;1228;51.022;6.764;2023-05-02T07:51:43;6.47;;;5.97;;
2434;SDS011;1228;51.022;6.764;2023-05-02T07:54:19;8.77;;;7.00;;
2434;SDS011;1228;51.022;6.764;2023-05-02T07:56:45;7.07;;;6.47;;
2434;SDS011;1228;51.022;6.764;2023-05-02T07:59:11;8.37;;;6.50;;
2434;SDS011;1228;51.022;6.764;2023-05-02T08:01:38;8.00;;;6.17;;
2434;SDS011;1228;51.022;6.764;2023-05-02T08:04:04;6.43;;;5.90;;
2434;SDS011;1228;51.022;6.764;2023-05-02T08:06:29;6.17;;;5.73;;
2434;SDS011;1228;51.022;6.764;2023-05-02T08:08:56;6.90;;;6.30;;
2434;SDS011;1228;51.022;6.764;2023-05-02T08:11:22;8.43;;;7.93;;
2434;SDS011;1228;51.022;6.764;2023-05-02T08:13:50;8.47;;;7.63;;
2434;SDS011;1228;51.022;6.764;2023-05-02T08:16:16;6.37;;;5.87;;
2434;SDS011;1228;51.022;6.764;2023-05-02T08:18:42;5.17;;;4.67;;
2434;SDS011;1228;51.022;6.764;2023-05-02T08:21:08;6.10;;;5.50;;
2434;SDS011;1228;51.022;6.764;2023-05-02T08:23:34;5.90;;;5.33;;
2434;SDS011;1228;51.022;6.764;2023-05-02T08:26:01;5.83;;;5.53;;
2434;SDS011;1228;51.022;6.764;2023-05-02T08:28:27;5.60;;;5.10;;
2434;SDS011;1228;51.022;6.764;2023-05-02T08:30:53;5.33;;;5.00;;
2434;SDS011;1228;51.022;6.764;2023-05-02T08:33:18;4.97;;;4.77;;
2434;SDS011;1228;51.022;6.764;2023-05-02T08:35:44;8.30;;;5.57;;
2434;SDS011;1228;51.022;6.764;2023-05-02T08:38:09;5.47;;;4.97;;
2434;SDS011;1228;51.022;6.764;2023-05-02T08:40:35;4.83;;;4.53;;
2434;SDS011;1228;51.022;6.764;2023-05-02T08:43:02;4.50;;;4.30;;
2434;SDS011;1228;51.022;6.764;2023-05-02T08:45:38;8.33;;;4.93;;
2434;SDS011;1228;51.022;6.764;2023-05-02T08:48:05;5.90;;;4.60;;
2434;SDS011;1228;51.022;6.764;2023-05-02T08:50:37;6.23;;;4.70;;
2434;SDS011;1228;51.022;6.764;2023-05-02T08:53:05;4.73;;;4.43;;
2434;SDS011;1228;51.022;6.764;2023-05-02T08:55:33;4.97;;;4.47;;
2434;SDS011;1228;51.022;6.764;2023-05-02T08:58:00;4.47;;;4.27;;
2434;SDS011;1228;51.022;6.764;2023-05-02T09:00:28;5.00;;;4.60;;
2434;SDS011;1228;51.022;6.764;2023-05-02T09:05:26;4.37;;;4.17;;
2434;SDS011;1228;51.022;6.764;2023-05-02T09:07:51;5.07;;;4.53;;
2434;SDS011;1228;51.022;6.764;2023-05-02T09:10:17;5.40;;;5.10;;
2434;SDS011;1228;51.022;6.764;2023-05-02T09:12:42;7.00;;;6.40;;
2434;SDS011;1228;51.022;6.764;2023-05-02T09:17:42;5.93;;;5.53;;
2434;SDS011;1228;51.022;6.764;2023-05-02T09:20:09;6.17;;;5.67;;
2434;SDS011;1228;51.022;6.764;2023-05-02T09:22:36;6.73;;;6.13;;
2434;SDS011;1228;51.022;6.764;2023-05-02T09:25:03;7.47;;;6.87;;
2434;SDS011;1228;51.022;6.764;2023-05-02T09:27:43;8.30;;;7.13;;
2434;SDS011;1228;51.022;6.764;2023-05-02T09:30:17;6.27;;;5.27;;
2434;SDS011;1228;51.022;6.764;2023-05-02T09:32:44;9.43;;;5.67;;
2434;SDS011;1228;51.022;6.764;2023-05-02T09:35:10;5.30;;;4.80;;
2434;SDS011;1228;51.022;6.764;2023-05-02T09:37:36;6.53;;;5.43;;
2434;SDS011;1228;51.022;6.764;2023-05-02T09:40:05;7.57;;;5.67;;
2434;SDS011;1228;51.022;6.764;2023-05-02T09:42:33;6.23;;;5.80;;
2434;SDS011;1228;51.022;6.764;2023-05-02T09:45:00;9.33;;;6.10;;
2434;SDS011;1228;51.022;6.764;2023-05-02T09:47:25;6.37;;;5.87;;
2434;SDS011;1228;51.022;6.764;2023-05-02T09:49:51;9.60;;;7.27;;
2434;SDS011;1228;51.022;6.764;2023-05-02T09:52:17;6.63;;;5.93;;
2434;SDS011;1228;51.022;6.764;2023-05-02T09:54:47;6.67;;;6.07;;
2434;SDS011;1228;51.022;6.764;2023-05-02T09:57:17;7.47;;;5.63;;
2434;SDS011;1228;51.022;6.764;2023-05-02T09:59:55;9.47;;;6.47;;
2434;SDS011;1228;51.022;6.764;2023-05-02T10:02:21;5.80;;;5.30;;
2434;SDS011;1228;51.022;6.764;2023-05-02T10:04:49;5.40;;;5.07;;
2434;SDS011;1228;51.022;6.764;2023-05-02T10:07:17;5.87;;;5.30;;
2434;SDS011;1228;51.022;6.764;2023-05-02T10:09:44;6.00;;;5.37;;
2434;SDS011;1228;51.022;6.764;2023-05-02T10:12:13;6.60;;;5.43;;
2434;SDS011;1228;51.022;6.764;2023-05-02T10:14:40;6.40;;;5.80;;
2434;SDS011;1228;51.022;6.764;2023-05-02T10:17:38;5.80;;;5.40;;
2434;SDS011;1228;51.022;6.764;2023-05-02T10:20:06;6.10;;;5.50;;
2434;SDS011;1228;51.022;6.764;2023-05-02T10:22:33;6.13;;;5.57;;
2434;SDS011;1228;51.022;6.764;2023-05-02T10:25:00;7.47;;;5.90;;
2434;SDS011;1228;51.022;6.764;2023-05-02T10:27:28;6.10;;;5.67;;
2434;SDS011;1228;51.022;6.764;2023-05-02T10:29:54;11.23;;;6.27;;
2434;SDS011;1228;51.022;6.764;2023-05-02T10:32:22;9.37;;;6.27;;
2434;SDS011;1228;51.022;6.764;2023-05-02T10:34:51;6.27;;;5.57;;
2434;SDS011;1228;51.022;6.764;2023-05-02T10:37:20;5.90;;;5.40;;
2434;SDS011;1228;51.022;6.764;2023-05-02T10:39:48;6.03;;;5.47;;
2434;SDS011;1228;51.022;6.764;2023-05-02T10:42:14;6.13;;;5.20;;
2434;SDS011;1228;51.022;6.764;2023-05-02T10:44:42;5.37;;;4.90;;
2434;SDS011;1228;51.022;6.764;2023-05-02T10:52:33;5.10;;;4.60;;
2434;SDS011;1228;51.022;6.764;2023-05-02T10:57:29;5.27;;;4.87;;
2434;SDS011;1228;51.022;6.764;2023-05-02T10:59:55;5.53;;;5.10;;
2434;SDS011;1228;51.022;6.764;2023-05-02T11:02:47;5.67;;;5.17;;
2434;SDS011;1228;51.022;6.764;2023-05-02T11:05:13;5.47;;;4.93;;
2434;SDS011;1228;51.022;6.764;2023-05-02T11:07:38;7.47;;;5.20;;
2434;SDS011;1228;51.022;6.764;2023-05-02T11:12:46;4.97;;;4.57;;
2434;SDS011;1228;51.022;6.764;2023-05-02T11:18:04;5.67;;;4.67;;
2434;SDS011;1228;51.022;6.764;2023-05-02T11:20:36;5.87;;;5.37;;
2434;SDS011;1228;51.022;6.764;2023-05-02T11:25:48;5.00;;;4.70;;
2434;SDS011;1228;51.022;6.764;2023-05-02T11:31:05;6.13;;;4.60;;
2434;SDS011;1228;51.022;6.764;2023-05-02T11:33:57;4.70;;;4.17;;
2434;SDS011;1228;51.022;6.764;2023-05-02T11:36:34;5.40;;;4.90;;
2434;SDS011;1228;51.022;6.764;2023-05-02T11:39:02;5.60;;;4.33;;
2434;SDS011;1228;51.022;6.764;2023-05-02T11:41:38;5.20;;;4.80;;
2434;SDS011;1228;51.022;6.764;2023-05-02T11:44:06;5.30;;;4.70;;
2434;SDS011;1228;51.022;6.764;2023-05-02T11:46:35;9.20;;;4.77;;
2434;SDS011;1228;51.022;6.764;2023-05-02T11:49:01;7.30;;;4.60;;
2434;SDS011;1228;51.022;6.764;2023-05-02T11:51:27;5.27;;;4.70;;
2434;SDS011;1228;51.022;6.764;2023-05-02T11:53:52;5.40;;;4.90;;
2434;SDS011;1228;51.022;6.764;2023-05-02T11:56:22;6.10;;;4.53;;
2434;SDS011;1228;51.022;6.764;2023-05-02T11:58:59;6.07;;;4.63;;
2434;SDS011;1228;51.022;6.764;2023-05-02T12:01:27;5.97;;;4.33;;
2434;SDS011;1228;51.022;6.764;2023-05-02T12:04:02;5.77;;;5.20;;
2434;SDS011;1228;51.022;6.764;2023-05-02T12:06:29;4.57;;;4.20;;
2434;SDS011;1228;51.022;6.764;2023-05-02T12:09:08;8.87;;;4.63;;
2434;SDS011;1228;51.022;6.764;2023-05-02T12:11:35;4.90;;;4.50;;
2434;SDS011;1228;51.022;6.764;2023-05-02T12:14:02;5.20;;;4.60;;
2434;SDS011;1228;51.022;6.764;2023-05-02T12:16:29;4.00;;;3.80;;
2434;SDS011;1228;51.022;6.764;2023-05-02T12:18:55;4.60;;;4.30;;
2434;SDS011;1228;51.022;6.764;2023-05-02T12:21:23;5.13;;;4.07;;
2434;SDS011;1228;51.022;6.764;2023-05-02T12:23:50;5.90;;;4.27;;
2434;SDS011;1228;51.022;6.764;2023-05-02T12:26:17;7.40;;;5.03;;
2434;SDS011;1228;51.022;6.764;2023-05-02T12:28:54;5.10;;;4.70;;
2434;SDS011;1228;51.022;6.764;2023-05-02T12:31:21;5.90;;;4.23;;
2434;SDS011;1228;51.022;6.764;2023-05-02T12:33:47;6.83;;;4.60;;
2434;SDS011;1228;51.022;6.764;2023-05-02T12:36:14;4.80;;;4.47;;
2434;SDS011;1228;51.022;6.764;2023-05-02T12:38:46;8.33;;;4.00;;
2434;SDS011;1228;51.022;6.764;2023-05-02T12:41:14;7.40;;;4.33;;
2434;SDS011;1228;51.022;6.764;2023-05-02T12:43:47;6.50;;;4.20;;
2434;SDS011;1228;51.022;6.764;2023-05-02T12:46:13;6.30;;;4.13;;
2434;SDS011;1228;51.022;6.764;2023-05-02T12:48:39;4.73;;;4.30;;
2434;SDS011;1228;51.022;6.764;2023-05-02T12:51:04;4.10;;;3.80;;
2434;SDS011;1228;51.022;6.764;2023-05-02T12:53:43;5.23;;;4.47;;
2434;SDS011;1228;51.022;6.764;2023-05-02T12:56:10;5.77;;;4.47;;
2434;SDS011;1228;51.022;6.764;2023-05-02T12:58:42;4.60;;;4.20;;
2434;SDS011;1228;51.022;6.764;2023-05-02T13:01:09;6.70;;;4.13;;
2434;SDS011;1228;51.022;6.764;2023-05-02T13:03:36;4.67;;;4.33;;
2434;SDS011;1228;51.022;6.764;2023-05-02T13:06:02;5.07;;;4.53;;
2434;SDS011;1228;51.022;6.764;2023-05-02T13:08:27;4.57;;;4.27;;
2434;SDS011;1228;51.022;6.764;2023-05-02T13:10:53;5.80;;;4.10;;
2434;SDS011;1228;51.022;6.764;2023-05-02T13:13:18;4.80;;;4.20;;
2434;SDS011;1228;51.022;6.764;2023-05-02T13:15:44;3.83;;;3.60;;
2434;SDS011;1228;51.022;6.764;2023-05-02T13:18:10;9.03;;;4.47;;
2434;SDS011;1228;51.022;6.764;2023-05-02T13:20:36;4.30;;;4.10;;
2434;SDS011;1228;51.022;6.764;2023-05-02T13:23:01;5.53;;;4.57;;
2434;SDS011;1228;51.022;6.764;2023-05-02T13:25:27;4.53;;;4.13;;
2434;SDS011;1228;51.022;6.764;2023-05-02T13:27:52;5.30;;;3.80;;
2434;SDS011;1228;51.022;6.764;2023-05-02T13:30:18;4.30;;;4.00;;
2434;SDS011;1228;51.022;6.764;2023-05-02T13:32:44;4.60;;;4.20;;
2434;SDS011;1228;51.022;6.764;2023-05-02T13:35:09;5.20;;;4.10;;
2434;SDS011;1228;51.022;6.764;2023-05-02T13:37:38;7.63;;;4.10;;
2434;SDS011;1228;51.022;6.764;2023-05-02T13:40:04;5.23;;;4.23;;
2434;SDS011;1228;51.022;6.764;2023-05-02T13:42:30;6.43;;;4.60;;
2434;SDS011;1228;51.022;6.764;2023-05-02T13:44:56;7.93;;;4.40;;
2434;SDS011;1228;51.022;6.764;2023-05-02T13:47:21;8.17;;;4.57;;
2434;SDS011;1228;51.022;6.764;2023-05-02T13:49:48;4.60;;;4.20;;
2434;SDS011;1228;51.022;6.764;2023-05-02T13:52:13;4.33;;;3.90;;
2434;SDS011;1228;51.022;6.764;2023-05-02T13:54:39;4.67;;;3.97;;
2434;SDS011;1228;51.022;6.764;2023-05-02T13:57:05;5.20;;;3.90;;
2434;SDS011;1228;51.022;6.764;2023-05-02T13:59:31;7.97;;;4.17;;
2434;SDS011;1228;51.022;6.764;2023-05-02T14:01:56;4.20;;;3.90;;
2434;SDS011;1228;51.022;6.764;2023-05-02T14:04:22;4.13;;;3.83;;
2434;SDS011;1228;51.022;6.764;2023-05-02T14:06:47;4.30;;;4.00;;
2434;SDS011;1228;51.022;6.764;2023-05-02T14:09:13;4.87;;;4.47;;
2434;SDS011;1228;51.022;6.764;2023-05-02T14:11:39;4.33;;;4.03;;
2434;SDS011;1228;51.022;6.764;2023-05-02T14:14:05;4.43;;;4.03;;
2434;SDS011;1228;51.022;6.764;2023-05-02T14:16:31;4.50;;;4.20;;
2434;SDS011;1228;51.022;6.764;2023-05-02T14:18:58;4.87;;;4.40;;
2434;SDS011;1228;51.022;6.764;2023-05-02T14:21:24;4.73;;;4.33;;
2434;SDS011;1228;51.022;6.764;2023-05-02T14:23:50;8.87;;;4.60;;
2434;SDS011;1228;51.022;6.764;2023-05-02T14:26:15;4.70;;;4.40;;
2434;SDS011;1228;51.022;6.764;2023-05-02T14:28:41;7.43;;;4.50;;
2434;SDS011;1228;51.022;6.764;2023-05-02T14:31:06;4.33;;;4.03;;
2434;SDS011;1228;51.022;6.764;2023-05-02T14:33:32;5.03;;;4.43;;
2434;SDS011;1228;51.022;6.764;2023-05-02T14:35:57;5.13;;;3.97;;
2434;SDS011;1228;51.022;6.764;2023-05-02T14:38:23;4.30;;;4.00;;
2434;SDS011;1228;51.022;6.764;2023-05-02T14:40:48;6.90;;;4.27;;
2434;SDS011;1228;51.022;6.764;2023-05-02T14:43:14;4.50;;;4.03;;
2434;SDS011;1228;51.022;6.764;2023-05-02T14:45:40;4.43;;;4.10;;
2434;SDS011;1228;51.022;6.764;2023-05-02T14:48:05;4.40;;;4.00;;
2434;SDS011;1228;51.022;6.764;2023-05-02T14:50:32;4.83;;;4.43;;
2434;SDS011;1228;51.022;6.764;2023-05-02T14:52:57;4.40;;;4.00;;
2434;SDS011;1228;51.022;6.764;2023-05-02T14:55:23;4.60;;;4.30;;
2434;SDS011;1228;51.022;6.764;2023-05-02T14:57:48;5.13;;;4.63;;
2434;SDS011;1228;51.022;6.764;2023-05-02T15:00:14;4.83;;;4.43;;
2434;SDS011;1228;51.022;6.764;2023-05-02T15:02:40;4.43;;;4.00;;
2434;SDS011;1228;51.022;6.764;2023-05-02T15:05:06;4.80;;;4.50;;
2434;SDS011;1228;51.022;6.764;2023-05-02T15:07:35;4.57;;;4.17;;
2434;SDS011;1228;51.022;6.764;2023-05-02T15:10:02;4.50;;;4.10;;
2434;SDS011;1228;51.022;6.764;2023-05-02T15:12:28;5.17;;;4.10;;
2434;SDS011;1228;51.022;6.764;2023-05-02T15:14:53;4.20;;;3.87;;
2434;SDS011;1228;51.022;6.764;2023-05-02T15:17:19;5.30;;;3.80;;
2434;SDS011;1228;51.022;6.764;2023-05-02T15:19:45;5.73;;;3.83;;
2434;SDS011;1228;51.022;6.764;2023-05-02T15:22:11;4.40;;;4.00;;
2434;SDS011;1228;51.022;6.764;2023-05-02T15:24:36;4.10;;;3.80;;
2434;SDS011;1228;51.022;6.764;2023-05-02T15:27:02;6.20;;;3.90;;
2434;SDS011;1228;51.022;6.764;2023-05-02T15:29:28;4.03;;;3.73;;
2434;SDS011;1228;51.022;6.764;2023-05-02T15:31:53;5.40;;;4.50;;
2434;SDS011;1228;51.022;6.764;2023-05-02T15:34:19;5.03;;;4.70;;
2434;SDS011;1228;51.022;6.764;2023-05-02T15:36:45;9.13;;;4.77;;
2434;SDS011;1228;51.022;6.764;2023-05-02T15:39:11;4.90;;;4.10;;
2434;SDS011;1228;51.022;6.764;2023-05-02T15:41:37;4.47;;;4.17;;
2434;SDS011;1228;51.022;6.764;2023-05-02T15:44:02;4.20;;;4.00;;
2434;SDS011;1228;51.022;6.764;2023-05-02T15:46:28;5.57;;;4.50;;
2434;SDS011;1228;51.022;6.764;2023-05-02T15:48:53;8.33;;;4.37;;
2434;SDS011;1228;51.022;6.764;2023-05-02T15:51:20;5.17;;;4.67;;
2434;SDS011;1228;51.022;6.764;2023-05-02T15:53:45;5.30;;;4.57;;
2434;SDS011;1228;51.022;6.764;2023-05-02T15:56:13;4.87;;;4.57;;
2434;SDS011;1228;51.022;6.764;2023-05-02T15:58:40;4.97;;;4.57;;
2434;SDS011;1228;51.022;6.764;2023-05-02T16:01:06;4.83;;;4.43;;
2434;SDS011;1228;51.022;6.764;2023-05-02T16:03:32;5.60;;;4.30;;